Kaunakakai, Hawaii
Current Conditions -  °F | °C
As of 3:54 PM on Saturday 25 Oct 2014 (Local Time) from PHMK Reporting Station
Clear Clear  
Wind Chill: 82°   Ceiling: Unl
Heat Index: 87°   Visibility: 10mi
Dew Point: 72°   Wind: 17mph
Humidity: 71%   Direction: 50°NE
Pressure: 29.96"   Gusts: 24mph
Location:  21.09°N, 157.01°W
Report Text: PHMK 260154Z 05015G21KT 10SM CLR 28/22 A2996 RMK AO2 SLP146 T02780222 $
Loading
Personal Weather Stations






























Interactive Weather Map
Tropical Storm Tracking
New forecast layout! Learn more

10-Day Weather Forecast

Advertisements
Track Severe Weather on mobile